AOK weather

Karpathos Airport
Karpathos Island, Dodecanese, Greece

Public forecast

Using degrees Celsius for public forecast. Weather courtesy of forecast.io.

Current aviation weather report (METAR) for Karpathos Airport

Retrieved 2019/12/15 12:20 UTC (34 minutes ago):

LGKP 151220Z 06011KT 9999 FEW018 20/13 Q1017

Aviation forecast (TAF) for Karpathos Airport

Forecast is more than 12 hours old.

Retrieved 2019/11/28 15:42 UTC (17 days ago):

TAF TAF LGKP 281400Z 2815/2903 24012KT 9999 FEW018